Time;durP1;ratioP1;P1;durP2;ratioP2;P2;SDS_P1;SDS_P2;PMS_P1;PMS_P2;Temp;Humidity;BMP_temperature;BMP_pressure;BME280_temperature;BME280_humidity;BME280_pressure;Samples;Min_cycle;Max_cycle;Signal;HPM_P1;HPM_P2
2022/06/27 00:00:07;;;;;;;8.32;4.93;;;;;;;23.27;68.58;100204.75;4977805;28;20071;-77
2022/06/27 00:02:37;;;;;;;7.53;5.15;;;;;;;23.45;67.22;100207.25;4977833;28;20050;-77
2022/06/27 00:05:08;;;;;;;7.35;5.30;;;;;;;23.33;68.23;100209.47;4977177;28;20050;-78
2022/06/27 00:07:36;;;;;;;8.70;5.13;;;;;;;23.17;69.08;100212.28;4977571;28;20051;-77
2022/06/27 00:10:05;;;;;;;9.70;4.75;;;;;;;23.19;69.16;100214.81;4977430;28;20072;-77
2022/06/27 00:12:33;;;;;;;8.73;5.05;;;;;;;23.14;69.30;100210.72;4977487;28;20057;-77
2022/06/27 00:15:03;;;;;;;7.88;4.97;;;;;;;23.12;69.64;100211.94;4977217;28;20035;-77
2022/06/27 00:17:31;;;;;;;9.18;5.70;;;;;;;23.05;69.97;100210.91;4977181;28;20461;-78
2022/06/27 00:19:59;;;;;;;10.05;5.55;;;;;;;23.03;71.01;100219.25;4976990;28;20047;-78
2022/06/27 00:22:29;;;;;;;10.35;5.60;;;;;;;22.95;72.00;100215.72;4977274;28;20065;-83
2022/06/27 00:24:57;;;;;;;7.07;5.07;;;;;;;22.99;71.50;100217.06;4977155;28;20122;-80
2022/06/27 00:27:25;;;;;;;8.00;4.88;;;;;;;23.01;71.02;100210.44;4977090;28;20073;-81
2022/06/27 00:29:53;;;;;;;13.07;5.90;;;;;;;22.97;71.61;100214.53;4959747;28;20058;-80
2022/06/27 00:32:23;;;;;;;9.00;5.10;;;;;;;23.16;69.91;100223.31;4976991;28;20042;-80
2022/06/27 00:34:56;;;;;;;9.35;4.93;;;;;;;23.11;69.24;100223.84;4977044;28;20396;-80
2022/06/27 00:37:24;;;;;;;10.63;5.32;;;;;;;23.14;69.01;100227.06;4977025;28;20043;-81
2022/06/27 00:39:54;;;;;;;11.05;4.60;;;;;;;23.11;69.46;100229.28;4976943;28;20047;-81
2022/06/27 00:42:22;;;;;;;8.98;5.18;;;;;;;23.14;69.33;100228.91;4976855;28;20141;-81
2022/06/27 00:44:50;;;;;;;7.47;5.03;;;;;;;22.94;71.00;100224.88;4980433;28;20050;-84
2022/06/27 00:47:18;;;;;;;9.55;5.50;;;;;;;22.85;71.50;100211.31;4964202;28;20055;-84
2022/06/27 00:49:47;;;;;;;11.25;5.57;;;;;;;22.97;70.53;100225.41;4992648;28;20042;-85
2022/06/27 00:52:15;;;;;;;8.90;5.00;;;;;;;23.03;69.56;100218.41;4989627;28;20051;-82
2022/06/27 00:54:46;;;;;;;8.00;5.05;;;;;;;22.71;72.74;100225.56;4979062;28;20050;-82
2022/06/27 00:57:17;;;;;;;8.45;5.18;;;;;;;22.55;74.07;100225.56;4958726;28;20055;-82
2022/06/27 00:59:45;;;;;;;8.68;4.88;;;;;;;22.69;72.75;100233.06;4976868;28;20051;-82
2022/06/27 01:02:14;;;;;;;8.25;4.90;;;;;;;22.92;71.29;100232.38;4976602;28;20046;-82
2022/06/27 01:04:42;;;;;;;9.35;4.95;;;;;;;22.77;71.78;100229.47;4976621;28;20121;-83
2022/06/27 01:07:10;;;;;;;11.93;5.30;;;;;;;22.69;72.85;100238.50;4976444;28;20105;-82
2022/06/27 01:09:43;;;;;;;7.10;4.97;;;;;;;22.51;73.79;100229.66;4976609;28;20105;-82
2022/06/27 01:12:12;;;;;;;6.85;4.75;;;;;;;22.46;74.05;100237.47;4976068;28;20046;-82
2022/06/27 01:14:42;;;;;;;7.70;4.70;;;;;;;22.51;73.68;100235.09;4976495;28;20054;-81
2022/06/27 01:17:11;;;;;;;8.15;4.75;;;;;;;22.36;75.34;100239.50;4958761;28;20091;-82
2022/06/27 01:19:40;;;;;;;6.80;4.72;;;;;;;22.38;75.29;100230.16;4976399;28;20062;-81
2022/06/27 01:22:11;;;;;;;8.02;5.15;;;;;;;22.32;76.37;100224.56;4976405;28;20063;-86
2022/06/27 01:24:39;;;;;;;9.23;5.00;;;;;;;22.20;76.72;100224.88;4976561;28;20121;-82
2022/06/27 01:27:08;;;;;;;7.43;4.68;;;;;;;22.04;77.87;100222.09;4976123;28;20047;-84
2022/06/27 01:29:37;;;;;;;9.35;5.10;;;;;;;22.13;77.86;100226.56;4975920;28;20046;-82
2022/06/27 01:32:06;;;;;;;7.50;4.78;;;;;;;22.12;78.04;100227.59;4976197;28;20043;-81
2022/06/27 01:34:35;;;;;;;8.20;4.60;;;;;;;21.87;80.34;100233.94;4976174;28;20047;-83
2022/06/27 01:37:04;;;;;;;7.28;4.50;;;;;;;21.98;79.05;100226.31;4975630;28;20389;-83
2022/06/27 01:39:34;;;;;;;7.32;5.22;;;;;;;21.99;79.37;100241.59;4975882;28;20049;-84
2022/06/27 01:42:04;;;;;;;7.72;4.93;;;;;;;21.85;80.65;100235.97;4975617;28;20046;-84
2022/06/27 01:44:34;;;;;;;9.27;4.80;;;;;;;21.71;82.18;100238.31;4976223;28;20039;-82
2022/06/27 01:47:04;;;;;;;5.50;4.47;;;;;;;21.85;80.88;100239.53;4975790;28;20077;-83
2022/06/27 01:49:35;;;;;;;7.88;4.22;;;;;;;22.08;78.93;100244.38;4975903;28;20050;-84
2022/06/27 01:52:05;;;;;;;7.45;4.65;;;;;;;22.01;79.32;100236.03;4975378;28;20038;-81
2022/06/27 01:54:36;;;;;;;6.85;4.93;;;;;;;21.99;79.79;100243.47;4975927;28;20050;-84
2022/06/27 01:57:05;;;;;;;6.50;4.65;;;;;;;21.69;82.56;100240.31;4975534;28;20130;-86
2022/06/27 01:59:33;;;;;;;7.25;4.63;;;;;;;21.63;83.42;100251.00;4975331;28;20502;-84
2022/06/27 02:02:03;;;;;;;6.13;4.20;;;;;;;21.84;81.29;100247.84;4975052;28;20053;-87
2022/06/27 02:04:33;;;;;;;5.95;4.13;;;;;;;21.83;81.46;100246.16;4976175;28;20051;-85
2022/06/27 02:07:02;;;;;;;6.97;4.60;;;;;;;21.91;80.82;100243.47;4975499;28;20396;-85
2022/06/27 02:09:30;;;;;;;7.65;4.45;;;;;;;21.74;82.56;100244.44;4975246;28;20051;-84
2022/06/27 02:12:18;;;;;;;8.23;4.60;;;;;;;21.73;82.33;100246.31;4975370;28;20451;-83
2022/06/27 02:14:48;;;;;;;8.60;4.78;;;;;;;21.56;85.54;100245.38;4975428;28;20047;-89
2022/06/27 02:17:18;;;;;;;8.13;4.90;;;;;;;21.44;86.85;100249.41;4975711;28;20043;-83
2022/06/27 02:19:46;;;;;;;8.70;4.80;;;;;;;21.39;87.35;100254.44;4975151;28;20480;-81
2022/06/27 02:22:15;;;;;;;5.57;4.47;;;;;;;21.30;88.16;100244.56;4974665;28;20046;-81
2022/06/27 02:24:44;;;;;;;8.27;5.15;;;;;;;21.38;87.71;100247.31;4974981;28;20047;-81
2022/06/27 02:27:13;;;;;;;6.00;4.35;;;;;;;21.41;86.91;100249.69;4974691;28;20126;-82
2022/06/27 02:29:41;;;;;;;6.60;4.70;;;;;;;21.55;85.54;100254.53;4974732;28;20388;-82
2022/06/27 02:32:10;;;;;;;8.38;4.38;;;;;;;21.52;85.83;100254.88;4974828;28;20115;-83
2022/06/27 02:34:39;;;;;;;6.32;4.78;;;;;;;21.46;86.11;100250.09;4974789;28;20097;-83
2022/06/27 02:37:08;;;;;;;6.97;4.85;;;;;;;21.34;87.96;100251.38;4974577;28;20047;-83
2022/06/27 02:39:40;;;;;;;6.82;4.65;;;;;;;21.28;88.20;100257.44;4974728;28;20070;-88
2022/06/27 02:42:11;;;;;;;6.50;4.55;;;;;;;21.25;88.95;100258.59;4975164;28;20403;-89
2022/06/27 02:44:42;;;;;;;6.65;4.93;;;;;;;21.21;89.41;100245.50;4975564;28;20042;-89
2022/06/27 02:47:10;;;;;;;7.65;4.80;;;;;;;21.18;90.83;100256.69;4975132;28;20399;-86
2022/06/27 02:49:40;;;;;;;8.55;4.35;;;;;;;21.23;89.14;100257.03;4974953;28;20046;-87
2022/06/27 02:52:19;;;;;;;8.32;4.90;;;;;;;21.19;89.07;100258.38;4975126;28;20043;-86
2022/06/27 02:54:50;;;;;;;7.85;4.82;;;;;;;21.20;88.33;100262.78;4975061;28;20039;-86
2022/06/27 02:57:26;;;;;;;8.90;4.55;;;;;;;21.23;88.37;100259.75;4975034;28;20477;-87
2022/06/27 02:59:57;;;;;;;11.27;4.38;;;;;;;21.31;86.94;100268.81;4957823;28;20469;-86
2022/06/27 03:02:26;;;;;;;6.82;4.45;;;;;;;21.27;87.91;100266.59;4974761;28;20043;-87
2022/06/27 03:04:56;;;;;;;6.28;4.60;;;;;;;21.25;87.33;100269.44;4974864;28;20053;-87
2022/06/27 03:07:24;;;;;;;6.75;4.80;;;;;;;21.30;87.50;100272.53;4974839;28;20046;-88
2022/06/27 03:09:53;;;;;;;8.30;4.25;;;;;;;21.54;84.49;100269.13;4974782;28;20047;-87
2022/06/27 03:12:21;;;;;;;8.00;4.82;;;;;;;21.65;82.59;100279.69;4974784;28;20480;-87
2022/06/27 03:14:49;;;;;;;7.55;4.70;;;;;;;21.64;82.58;100286.13;4974327;28;20412;-82
2022/06/27 03:17:18;;;;;;;7.90;4.82;;;;;;;21.66;83.08;100283.25;4973973;28;20047;-82
2022/06/27 03:19:46;;;;;;;12.63;4.80;;;;;;;21.79;81.45;100293.63;4975943;28;20110;-78
2022/06/27 03:22:15;;;;;;;7.90;4.72;;;;;;;21.71;82.27;100295.34;4978128;28;20097;-79
2022/06/27 03:24:43;;;;;;;6.57;4.47;;;;;;;21.91;80.38;100293.19;4960863;28;20567;-79
2022/06/27 03:27:11;;;;;;;7.65;4.70;;;;;;;21.77;80.98;100298.38;4960968;28;20057;-84
2022/06/27 03:29:39;;;;;;;8.05;4.80;;;;;;;21.80;81.31;100301.63;4978219;28;20054;-83
2022/06/27 03:32:08;;;;;;;5.90;4.55;;;;;;;21.95;80.23;100299.13;4978232;28;20392;-80
2022/06/27 03:34:38;;;;;;;10.00;4.65;;;;;;;22.25;78.29;100301.28;4977994;28;20079;-80
2022/06/27 03:37:07;;;;;;;6.10;4.30;;;;;;;22.31;77.58;100299.78;4977857;28;20043;-81
2022/06/27 03:39:35;;;;;;;9.43;4.55;;;;;;;22.94;74.33;100298.31;4977879;28;20502;-81
2022/06/27 03:42:04;;;;;;;7.07;5.15;;;;;;;23.57;70.19;100298.38;4977859;28;20403;-79
2022/06/27 03:44:32;;;;;;;6.80;4.60;;;;;;;24.14;67.21;100305.50;4978081;28;20046;-81
2022/06/27 03:47:00;;;;;;;9.43;4.45;;;;;;;24.68;63.23;100313.69;4977896;28;20058;-80
2022/06/27 03:52:15;;;;;;;7.50;4.40;;;;;;;25.50;58.99;100303.75;4977808;28;20042;-80
2022/06/27 03:54:43;;;;;;;9.43;4.32;;;;;;;25.90;57.82;100304.31;4977686;28;20043;-80
2022/06/27 03:57:11;;;;;;;7.72;4.43;;;;;;;26.71;55.06;100294.94;4977681;28;20511;-80
2022/06/27 03:59:39;;;;;;;9.63;4.13;;;;;;;27.03;53.78;100296.34;4977382;28;20069;-80
2022/06/27 04:02:09;;;;;;;6.10;4.20;;;;;;;27.33;51.72;100293.41;4977476;28;20449;-80
2022/06/27 04:04:37;;;;;;;5.90;4.25;;;;;;;27.43;51.40;100295.78;4977950;28;20102;-83
2022/06/27 04:07:05;;;;;;;7.55;4.07;;;;;;;27.05;52.61;100302.47;4977819;28;20053;-85
2022/06/27 04:09:35;;;;;;;8.00;4.18;;;;;;;26.90;53.05;100311.75;4977694;28;20042;-85
2022/06/27 04:12:03;;;;;;;6.68;3.80;;;;;;;27.43;51.16;100306.75;4977482;28;20476;-81
2022/06/27 04:14:31;;;;;;;6.75;3.90;;;;;;;28.12;48.54;100303.97;4959858;28;20484;-82
2022/06/27 04:17:00;;;;;;;5.47;3.63;;;;;;;27.71;50.26;100307.59;4978492;28;20404;-80
2022/06/27 04:19:28;;;;;;;7.00;3.70;;;;;;;27.55;50.49;100310.59;4977995;28;20046;-82
2022/06/27 04:21:56;;;;;;;5.95;3.97;;;;;;;27.50;50.16;100308.44;4986716;28;20047;-81
2022/06/27 04:24:25;;;;;;;10.30;3.70;;;;;;;27.31;50.91;100310.03;4994060;28;20070;-79
2022/06/27 04:26:54;;;;;;;7.97;3.80;;;;;;;28.50;48.03;100318.03;4983747;28;20073;-79
2022/06/27 04:29:22;;;;;;;7.68;3.70;;;;;;;28.87;47.11;100321.28;4959885;28;20047;-79
2022/06/27 04:31:50;;;;;;;6.78;3.75;;;;;;;28.18;47.81;100322.31;4975917;28;20139;-78
2022/06/27 04:34:19;;;;;;;5.50;3.70;;;;;;;29.42;44.79;100324.66;4976736;28;20042;-79
2022/06/27 04:36:47;;;;;;;7.38;3.60;;;;;;;29.49;44.92;100322.78;4977702;28;20137;-86
2022/06/27 04:39:17;;;;;;;6.80;3.90;;;;;;;29.63;44.81;100327.22;4977531;28;20130;-86
2022/06/27 04:41:46;;;;;;;6.18;4.00;;;;;;;29.54;45.06;100323.84;4977228;28;20049;-79
2022/06/27 04:44:15;;;;;;;5.78;3.45;;;;;;;30.44;42.43;100323.97;4977430;28;20479;-82
2022/06/27 04:46:43;;;;;;;6.05;3.40;;;;;;;29.83;43.75;100332.66;4976824;28;20057;-78
2022/06/27 04:49:12;;;;;;;5.45;3.58;;;;;;;29.96;43.13;100324.38;4976589;28;20043;-79
2022/06/27 04:51:41;;;;;;;7.40;3.60;;;;;;;30.13;43.04;100328.34;4976944;28;20051;-77
2022/06/27 04:54:10;;;;;;;5.70;3.65;;;;;;;29.83;43.43;100333.50;4976692;28;20043;-77
2022/06/27 04:56:41;;;;;;;4.82;3.40;;;;;;;30.06;43.26;100330.25;4959107;28;20050;-77
2022/06/27 04:59:09;;;;;;;7.35;3.60;;;;;;;30.43;42.70;100322.28;4976221;28;20038;-75
2022/06/27 05:01:39;;;;;;;5.75;3.28;;;;;;;30.49;41.82;100332.38;4959156;28;20051;-78
2022/06/27 05:04:07;;;;;;;8.65;3.42;;;;;;;30.93;41.22;100326.00;4976560;28;20047;-86
2022/06/27 05:06:35;;;;;;;6.45;3.05;;;;;;;30.85;41.06;100328.19;4976408;28;20412;-77
2022/06/27 05:09:03;;;;;;;8.40;3.47;;;;;;;30.91;41.23;100330.06;4976262;28;20042;-81
2022/06/27 05:11:31;;;;;;;6.00;3.38;;;;;;;31.48;39.74;100339.13;4975973;28;20058;-79
2022/06/27 05:13:59;;;;;;;7.28;3.05;;;;;;;31.38;39.93;100336.06;4976057;28;20051;-78
2022/06/27 05:16:28;;;;;;;4.82;3.10;;;;;;;31.79;39.13;100338.19;4975928;28;20096;-77
2022/06/27 05:18:57;;;;;;;5.65;3.15;;;;;;;31.68;39.42;100339.78;4976248;28;20054;-77
2022/06/27 05:21:43;;;;;;;6.93;3.53;;;;;;;31.74;39.19;100340.75;4976628;28;20105;-86
2022/06/27 05:24:12;;;;;;;5.72;3.20;;;;;;;31.12;40.49;100342.59;4975908;28;20039;-85
2022/06/27 05:26:40;;;;;;;9.90;3.30;;;;;;;31.30;40.05;100337.19;4976179;28;20050;-84
2022/06/27 05:29:09;;;;;;;5.95;3.58;;;;;;;32.15;38.79;100338.19;4976085;28;20408;-86
2022/06/27 05:31:37;;;;;;;6.53;3.60;;;;;;;32.50;37.98;100344.97;4958582;28;20051;-86
2022/06/27 05:34:06;;;;;;;4.38;3.08;;;;;;;31.45;39.77;100337.66;4976105;28;20070;-85
2022/06/27 05:36:38;;;;;;;4.32;2.97;;;;;;;31.12;40.38;100343.44;4977365;28;20039;-85
2022/06/27 05:39:07;;;;;;;4.80;3.28;;;;;;;32.01;38.68;100335.81;4976250;28;20556;-84
2022/06/27 05:41:36;;;;;;;5.78;3.28;;;;;;;31.26;40.44;100333.16;4976622;28;20047;-89
2022/06/27 05:44:05;;;;;;;5.35;3.13;;;;;;;32.54;38.25;100335.16;4975741;28;20058;-78
2022/06/27 05:46:33;;;;;;;7.40;3.60;;;;;;;32.46;38.35;100339.09;4975338;28;20055;-76
2022/06/27 05:49:03;;;;;;;5.88;3.13;;;;;;;32.83;37.92;100331.56;4958155;28;20051;-78
2022/06/27 05:51:32;;;;;;;5.55;3.05;;;;;;;33.98;35.78;100336.59;4975423;28;20070;-78
2022/06/27 05:54:01;;;;;;;5.93;2.88;;;;;;;34.04;35.75;100341.13;4975560;28;20047;-77
2022/06/27 05:56:30;;;;;;;4.60;2.80;;;;;;;33.38;36.08;100341.53;4975399;28;20054;-75
2022/06/27 05:58:58;;;;;;;5.60;2.88;;;;;;;32.65;36.95;100332.44;4975310;28;20046;-75
2022/06/27 06:01:27;;;;;;;6.45;3.22;;;;;;;32.82;36.88;100332.63;4974015;28;20074;-75
2022/06/27 06:03:56;;;;;;;5.50;3.10;;;;;;;33.43;35.44;100342.50;4967884;28;20038;-80
2022/06/27 06:06:25;;;;;;;7.97;3.00;;;;;;;33.63;35.15;100344.06;4970324;28;20053;-75
2022/06/27 06:08:55;;;;;;;8.40;2.90;;;;;;;32.99;36.10;100338.31;4974572;28;20049;-74
2022/06/27 06:11:24;;;;;;;6.97;2.90;;;;;;;32.54;36.62;100346.22;4973702;28;20070;-74
2022/06/27 06:13:54;;;;;;;4.38;2.80;;;;;;;33.31;35.31;100347.16;4975428;28;20046;-74
2022/06/27 06:16:22;;;;;;;4.90;3.13;;;;;;;33.85;34.80;100354.25;4975400;28;20045;-76
2022/06/27 06:18:52;;;;;;;5.93;2.92;;;;;;;33.89;35.31;100351.88;4974251;28;20042;-75
2022/06/27 06:21:21;;;;;;;3.88;2.80;;;;;;;33.26;35.75;100360.84;4974195;28;20094;-75
2022/06/27 06:23:51;;;;;;;5.53;3.10;;;;;;;33.94;34.68;100357.53;4974321;28;20050;-77
2022/06/27 06:26:21;;;;;;;4.47;3.00;;;;;;;34.00;34.50;100353.78;4973289;28;20042;-77
2022/06/27 06:28:49;;;;;;;6.70;3.10;;;;;;;35.17;32.92;100346.94;4956875;28;20141;-75
2022/06/27 06:31:22;;;;;;;5.50;3.17;;;;;;;35.03;33.11;100356.66;4971608;28;20109;-74
2022/06/27 06:33:57;;;;;;;6.28;3.20;;;;;;;34.27;34.01;100367.09;4974648;28;20057;-74
2022/06/27 06:36:26;;;;;;;4.97;3.00;;;;;;;34.48;34.00;100363.66;4974195;28;20049;-73
2022/06/27 06:38:57;;;;;;;4.20;2.60;;;;;;;34.06;34.74;100372.16;4974538;28;20408;-72
2022/06/27 06:41:27;;;;;;;6.63;2.88;;;;;;;34.23;34.33;100371.41;4974036;28;20054;-72
2022/06/27 06:43:56;;;;;;;7.60;3.00;;;;;;;33.78;35.19;100374.81;4974821;28;20043;-72
2022/06/27 06:46:24;;;;;;;4.35;2.85;;;;;;;33.51;35.50;100386.38;4974401;28;20074;-72
2022/06/27 06:48:54;;;;;;;5.57;3.05;;;;;;;32.90;36.67;100373.72;4974557;28;20126;-72
2022/06/27 06:51:22;;;;;;;5.97;3.10;;;;;;;33.28;36.22;100369.72;4974403;28;20046;-72
2022/06/27 06:53:51;;;;;;;5.25;3.13;;;;;;;32.43;37.63;100367.19;4974272;28;20043;-72
2022/06/27 06:56:19;;;;;;;6.43;3.70;;;;;;;32.84;36.93;100369.16;4974241;28;20484;-72
2022/06/27 06:58:48;;;;;;;6.70;3.22;;;;;;;32.95;37.28;100368.34;4974180;28;20050;-72
2022/06/27 07:01:18;;;;;;;5.90;3.33;;;;;;;33.27;37.12;100366.13;4974286;28;20043;-85
2022/06/27 07:03:47;;;;;;;4.22;3.00;;;;;;;32.62;37.87;100367.94;4974382;28;20043;-71
2022/06/27 07:06:17;;;;;;;6.00;3.15;;;;;;;30.86;41.71;100360.16;4974188;28;20130;-72
2022/06/27 07:08:46;;;;;;;6.65;3.53;;;;;;;31.68;39.81;100370.09;4974329;28;20047;-72
2022/06/27 07:11:15;;;;;;;5.97;3.53;;;;;;;30.97;42.06;100364.94;4957052;28;20101;-71
2022/06/27 07:13:43;;;;;;;6.90;3.53;;;;;;;31.37;40.83;100362.78;4974409;28;20386;-72
2022/06/27 07:16:12;;;;;;;6.28;3.42;;;;;;;31.05;41.07;100364.66;4974331;28;20043;-72
2022/06/27 07:18:41;;;;;;;5.30;3.20;;;;;;;30.83;41.63;100357.84;4974007;28;20452;-72
2022/06/27 07:21:09;;;;;;;5.80;3.10;;;;;;;31.09;41.66;100356.81;4956982;28;20140;-72
2022/06/27 07:23:37;;;;;;;6.80;3.38;;;;;;;31.23;40.82;100359.25;4973944;28;20077;-72
2022/06/27 07:26:06;;;;;;;6.95;3.30;;;;;;;31.02;41.12;100365.13;4974711;28;20039;-72
2022/06/27 07:28:40;;;;;;;7.15;3.35;;;;;;;31.02;40.72;100362.38;4974154;28;20051;-72
2022/06/27 07:31:11;;;;;;;5.18;3.30;;;;;;;30.89;40.74;100356.97;4974095;28;20090;-72
2022/06/27 07:33:42;;;;;;;4.97;3.28;;;;;;;30.93;40.17;100355.44;4974104;28;20122;-72
2022/06/27 07:36:14;;;;;;;4.88;3.15;;;;;;;30.76;40.21;100353.22;4974261;28;20400;-72
2022/06/27 07:38:43;;;;;;;4.68;3.05;;;;;;;30.48;41.38;100364.56;4956752;28;20086;-72
2022/06/27 07:41:13;;;;;;;5.43;2.97;;;;;;;30.42;40.84;100365.47;4973712;28;20484;-72
2022/06/27 07:43:44;;;;;;;7.97;3.70;;;;;;;30.30;41.13;100366.34;4956344;28;20055;-72
2022/06/27 07:46:12;;;;;;;6.05;3.20;;;;;;;30.19;41.00;100365.97;4956628;28;20061;-71
2022/06/27 07:48:42;;;;;;;5.72;3.17;;;;;;;30.37;41.17;100361.66;4973633;28;20051;-72
2022/06/27 07:51:16;;;;;;;6.43;2.95;;;;;;;30.51;40.67;100357.81;4974048;28;20047;-72
2022/06/27 07:53:46;;;;;;;5.68;2.90;;;;;;;30.63;40.33;100358.78;4973846;28;20550;-72
2022/06/27 07:56:16;;;;;;;4.78;3.35;;;;;;;30.51;40.80;100355.06;4976125;28;20046;-72
2022/06/27 07:58:56;;;;;;;6.07;3.30;;;;;;;30.59;41.17;100357.53;4975368;28;20510;-72
2022/06/27 08:01:27;;;;;;;5.80;3.40;;;;;;;30.69;40.47;100357.94;4956301;28;20046;-72
2022/06/27 08:03:56;;;;;;;6.20;2.90;;;;;;;30.63;40.60;100361.53;4973927;28;20049;-71
2022/06/27 08:06:26;;;;;;;4.38;3.05;;;;;;;30.37;41.33;100367.19;4974138;28;20502;-72
2022/06/27 08:08:57;;;;;;;4.40;3.10;;;;;;;30.37;41.46;100359.75;4977678;28;20042;-72
2022/06/27 08:11:28;;;;;;;4.70;3.47;;;;;;;30.16;41.56;100366.41;4977385;28;20133;-72
2022/06/27 08:13:58;;;;;;;6.35;3.25;;;;;;;30.50;40.68;100361.63;4977487;28;20483;-71
2022/06/27 08:16:27;;;;;;;6.82;3.20;;;;;;;30.01;41.64;100374.03;4976899;28;20174;-72
2022/06/27 08:18:57;;;;;;;5.32;3.00;;;;;;;30.45;41.27;100373.28;4977038;28;20098;-72
2022/06/27 08:21:27;;;;;;;4.35;3.38;;;;;;;30.64;41.37;100381.66;4977298;28;20122;-71
2022/06/27 08:23:58;;;;;;;5.93;3.17;;;;;;;30.74;40.45;100369.13;4977003;28;20049;-72
2022/06/27 08:26:27;;;;;;;6.63;3.10;;;;;;;30.35;41.44;100380.31;4959548;28;20055;-72
2022/06/27 08:28:56;;;;;;;5.63;3.10;;;;;;;30.41;41.14;100385.78;4977192;28;20141;-72
2022/06/27 08:31:25;;;;;;;6.00;3.17;;;;;;;30.67;41.21;100373.81;4977015;28;20105;-72
2022/06/27 08:33:55;;;;;;;4.93;3.03;;;;;;;30.44;41.34;100373.50;4976894;28;20047;-72
2022/06/27 08:36:27;;;;;;;5.88;3.10;;;;;;;30.56;40.64;100368.97;4977154;28;20136;-72
2022/06/27 08:39:02;;;;;;;6.25;3.28;;;;;;;30.26;41.87;100367.88;4959846;28;20054;-72
2022/06/27 08:41:31;;;;;;;5.15;3.05;;;;;;;30.53;41.68;100380.44;4976597;28;20050;-72
2022/06/27 08:44:00;;;;;;;5.45;3.40;;;;;;;30.63;40.96;100374.47;4976632;28;20045;-74
2022/06/27 08:46:30;;;;;;;6.30;3.60;;;;;;;30.81;40.82;100373.75;4958896;28;20678;-72
2022/06/27 08:48:58;;;;;;;5.40;3.10;;;;;;;30.91;40.31;100368.59;4976875;28;20066;-72
2022/06/27 08:51:29;;;;;;;6.60;3.45;;;;;;;30.91;39.64;100363.09;4976271;28;20047;-72
2022/06/27 08:53:57;;;;;;;8.52;3.55;;;;;;;31.09;39.71;100360.44;4976706;28;20151;-72
2022/06/27 08:56:27;;;;;;;5.70;3.00;;;;;;;31.17;39.28;100360.13;4976120;28;20070;-73
2022/06/27 08:58:58;;;;;;;6.00;3.38;;;;;;;31.23;39.19;100355.66;4976245;28;20552;-72
2022/06/27 09:01:27;;;;;;;6.35;3.10;;;;;;;31.26;39.22;100364.31;4976619;28;20436;-72
2022/06/27 09:04:01;;;;;;;4.78;3.00;;;;;;;30.96;39.08;100361.34;4976407;28;20143;-72
2022/06/27 09:06:34;;;;;;;5.13;3.00;;;;;;;30.88;38.19;100358.00;4976120;28;20543;-72
2022/06/27 09:09:09;;;;;;;5.90;3.05;;;;;;;30.93;38.35;100364.56;4976374;28;20057;-72
2022/06/27 09:11:39;;;;;;;5.50;3.00;;;;;;;30.61;38.72;100360.09;4976279;28;20125;-72
2022/06/27 09:14:25;;;;;;;5.30;2.85;;;;;;;30.54;39.41;100362.03;4976499;28;20459;-72
2022/06/27 09:16:57;;;;;;;10.73;3.42;;;;;;;30.85;39.45;100361.22;4975509;28;20459;-72
2022/06/27 09:19:44;;;;;;;;;;;;;;;31.04;39.55;100363.84;4976305;28;20043;-76
2022/06/27 09:22:16;;;;;;;4.22;2.60;;;;;;;31.13;38.95;100352.53;4976302;28;19957;-71
2022/06/27 09:25:06;;;;;;;6.45;2.78;;;;;;;31.12;39.11;100348.09;4976185;28;20050;-71
2022/06/27 09:27:44;;;;;;;5.95;3.13;;;;;;;31.10;38.80;100344.75;4958523;28;20064;-71
2022/06/27 09:30:26;;;;;;;6.95;2.90;;;;;;;30.90;38.81;100350.41;4975634;28;20051;-71
2022/06/27 09:32:58;;;;;;;7.22;3.13;;;;;;;31.12;38.97;100348.94;4958767;28;20055;-71
2022/06/27 09:35:29;;;;;;;4.67;3.17;;;;;;;30.97;39.39;100346.50;4975746;28;20049;-81
2022/06/27 09:38:01;;;;;;;7.30;3.45;;;;;;;31.05;39.24;100342.63;4975910;28;20046;-71
2022/06/27 09:40:32;;;;;;;5.60;4.03;;;;;;;30.87;40.11;100345.31;4975595;28;20047;-71
2022/06/27 09:43:07;;;;;;;4.45;3.00;;;;;;;30.87;39.52;100345.31;4975927;28;20043;-71
2022/06/27 09:45:35;;;;;;;6.20;3.22;;;;;;;30.96;39.68;100347.56;4958369;28;20138;-71
2022/06/27 09:48:06;;;;;;;6.80;3.35;;;;;;;31.00;39.61;100345.25;4975714;28;20530;-71
2022/06/27 09:50:39;;;;;;;5.30;3.08;;;;;;;31.02;39.61;100337.59;4975638;28;20043;-71
2022/06/27 09:53:09;;;;;;;;;;;;;;;31.09;39.99;100335.63;4976159;28;20057;-71
2022/06/27 09:55:39;;;;;;;6.40;3.22;;;;;;;31.44;38.97;100335.97;4958080;28;19965;-71
2022/06/27 09:58:09;;;;;;;4.68;3.10;;;;;;;31.68;38.28;100342.53;4975471;28;20047;-71
2022/06/27 10:00:40;;;;;;;6.63;3.25;;;;;;;31.58;38.60;100331.19;4975128;28;20043;-72
2022/06/27 10:03:09;;;;;;;6.28;3.13;;;;;;;31.30;38.51;100329.75;4975377;28;20047;-71
2022/06/27 10:05:44;;;;;;;6.55;3.35;;;;;;;31.65;37.90;100331.94;4975147;28;20046;-71
2022/06/27 10:08:16;;;;;;;6.53;3.03;;;;;;;31.75;37.61;100326.78;4958215;28;20051;-71
2022/06/27 10:11:06;;;;;;;5.97;3.03;;;;;;;32.09;35.26;100330.00;4975104;28;20122;-71
2022/06/27 10:13:36;;;;;;;9.00;2.90;;;;;;;32.16;34.76;100325.25;4975049;28;20057;-72
2022/06/27 10:16:12;;;;;;;4.38;2.97;;;;;;;32.23;35.15;100328.72;4975131;28;20042;-71
2022/06/27 10:18:54;;;;;;;5.60;3.20;;;;;;;32.37;35.07;100319.25;4975072;28;20054;-71
2022/06/27 10:21:27;;;;;;;7.32;3.47;;;;;;;32.49;35.39;100321.22;4975137;28;20499;-71
2022/06/27 10:24:33;;;;;;;6.03;2.85;;;;;;;32.48;35.48;100312.09;4958001;28;20082;-71
2022/06/27 10:27:06;;;;;;;5.70;2.97;;;;;;;32.18;36.16;100309.28;4975447;28;20053;-71
2022/06/27 10:29:42;;;;;;;6.72;3.08;;;;;;;32.39;35.48;100311.56;4974284;28;20361;-71
2022/06/27 10:32:43;;;;;;;7.80;3.05;;;;;;;32.54;33.76;100299.28;4974732;28;20055;-71
2022/06/27 10:35:13;;;;;;;5.03;3.20;;;;;;;32.35;33.72;100304.84;4958002;28;20102;-71
2022/06/27 10:37:43;;;;;;;5.00;2.90;;;;;;;32.13;33.60;100292.56;4974591;28;20049;-71
2022/06/27 10:40:51;;;;;;;5.80;2.60;;;;;;;32.20;34.62;100285.06;4974691;28;20113;-71
2022/06/27 10:43:46;;;;;;;6.30;2.95;;;;;;;32.56;33.88;100295.19;4957619;28;20051;-71
2022/06/27 10:46:43;;;;;;;5.13;3.03;;;;;;;32.70;33.93;100290.31;4957268;28;20054;-71
2022/06/27 10:49:31;;;;;;;4.97;3.03;;;;;;;32.72;33.97;100285.41;4940726;28;20062;-72
2022/06/27 10:52:26;;;;;;;4.10;2.70;;;;;;;32.87;34.50;100285.81;4974789;28;20050;-70
2022/06/27 10:54:54;;;;;;;6.22;2.90;;;;;;;33.08;33.19;100291.84;4974256;28;20054;-70
2022/06/27 10:57:46;;;;;;;5.60;2.72;;;;;;;33.24;32.30;100280.09;4974419;28;20050;-70
2022/06/27 11:00:38;;;;;;;6.70;2.92;;;;;;;33.41;31.47;100291.31;4955728;28;20058;-70
2022/06/27 11:03:08;;;;;;;6.57;2.75;;;;;;;33.48;31.26;100286.47;4974762;28;20047;-70
2022/06/27 11:05:55;;;;;;;5.15;3.10;;;;;;;33.28;31.77;100295.94;4957011;28;20050;-72
2022/06/27 11:08:24;;;;;;;5.85;3.00;;;;;;;32.81;32.58;100295.00;4974611;28;20105;-71
2022/06/27 11:10:53;;;;;;;5.32;2.80;;;;;;;32.77;33.45;100274.47;4974177;28;20051;-71
2022/06/27 11:13:41;;;;;;;;;;;;;;;32.97;33.43;100286.06;4975052;28;20058;-71
2022/06/27 11:16:15;;;;;;;3.90;2.78;;;;;;;33.28;32.63;100275.75;4974201;28;19929;-71
2022/06/27 11:18:45;;;;;;;5.25;2.67;;;;;;;33.30;31.88;100273.63;4974301;28;20127;-71
2022/06/27 11:21:15;;;;;;;6.93;3.25;;;;;;;33.31;30.85;100270.59;4957491;28;20050;-71
2022/06/27 11:24:06;;;;;;;5.45;2.85;;;;;;;33.27;32.04;100261.09;4957816;28;20077;-71
2022/06/27 11:26:36;;;;;;;5.20;2.55;;;;;;;33.25;32.06;100265.19;4957468;28;20055;-72
2022/06/27 11:32:04;;;;;;;6.70;3.10;;;;;;;32.59;33.06;100250.53;4973709;28;20070;-71
2022/06/27 11:34:40;;;;;;;6.97;3.05;;;;;;;32.56;32.60;100251.03;4973930;28;20043;-72
2022/06/27 11:37:11;;;;;;;4.82;2.92;;;;;;;32.60;32.30;100256.91;4956620;28;20047;-71
2022/06/27 11:39:39;;;;;;;6.82;3.28;;;;;;;32.61;32.28;100248.38;4956639;28;20244;-72
2022/06/27 11:42:10;;;;;;;5.35;3.10;;;;;;;32.90;32.27;100245.81;4977773;28;20043;-71
2022/06/27 11:44:39;;;;;;;6.47;3.00;;;;;;;33.19;31.95;100244.88;4977626;28;20039;-71
2022/06/27 11:47:10;;;;;;;4.72;3.20;;;;;;;33.40;32.00;100250.91;4977684;28;20043;-71
2022/06/27 11:49:40;;;;;;;5.50;2.83;;;;;;;33.24;31.95;100245.00;4977555;28;20043;-71